Cypress, IL (62923)

9:35 AM CDT on September 20, 2014 (GMT -0500)
Hidden River Farms | Change Station
CLOSE
Current Station
Personal Weather Station
Location: Buncombe, IL
Elevation: 466 ft
Nearby Weather Stations

Elev 466 ft 37.47 °N, 89.11 °W | Updated 24 seconds ago

Partly Cloudy
Partly Cloudy
68.5 °F
Feels Like 68.5 °F
N
2.0
Wind Variable Wind from ESE
Gusts 3.0 mph

Today
High -- | Low -- °F
--% Chance of Precip.
Yesterday
High -- | Low -- °F
Precip. -- in
6:42 AM 6:56 PM
Waning Crescent, 12% visible
Pressure 30.08 in
Visibility 10.0 miles
Clouds Mostly Cloudy 5500 ft
Dew Point 66 °F
Humidity 91%
Rainfall 0.00 in
Snow Depth Not available.
UV 2 out of 12
Pollen 7.60 out of 12
Air Quality Not available.
Flu Activity Not available.
METAR KM30 201415Z AUTO 20004KT 10SM BKN055 23/20 A3008 RMK AO2 T02260201

More Conditions Fewer Conditions

Pressure 30.08 in
Visibility 10.0 miles
Clouds Mostly Cloudy 5500 ft
Dew Point 66 °F
Humidity 91%
Rainfall 0.00 in
Snow Depth Not available.
UV 2 out of 12
Pollen 7.60 out of 12
Air Quality Not available.
Flu Activity Not available.
METAR KM30 201415Z AUTO 20004KT 10SM BKN055 23/20 A3008 RMK AO2 T02260201

More Conditions Fewer Conditions

10-Day Weather Forecast

Almanac

Astronomy

Sep. 20, 2014 Rise Set
Actual Time 6:42 AM CDT 6:56 PM CDT
Civil Twilight 6:16 AM CDT 7:22 PM CDT
Nautical Twilight 5:45 AM CDT 7:52 PM CDT
Astronomical Twilight 5:14 AM CDT 8:23 PM CDT
Moon 3:24 AM CDT 4:56 PM CDT
Length of Visible Light 13h 05m
Length of Day
12h 13m
Tomorrow will be 2m 22s shorter.
Waning Crescent, 12% of the Moon is Illuminated
Today
Waning Crescent
Sep 24
New
Oct 1
First Quarter
Oct 8
Full
Oct 15
Last Quarter

Today's Extremes

State Highs State Lows

Community

WunderPhotos

Upload Photos

1,754,872 photos uploaded!

WunderBlogs® & News

Nearby

Snow Depth

Station Depth Elevation
No new snow has been reported.

Earthquake Activity

City Distance Mag. Time & Date
No recent earthquake activity has been reported nearby.
Minimum magnitude displayed is 2.5.

Coastal Water Temperatures

Place Temperature
No Stations Reporting

Nearby Weather Stations